sensor_id;sensor_type;location;lat;lon;timestamp;pressure;altitude;pressure_sealevel;temperature;humidity
85343;BME280;75760;31.390;34.904;2024-01-27T00:01:14;94976.91;;;9.86;92.39
85343;BME280;75760;31.390;34.904;2024-01-27T00:03:39;94974.66;;;9.85;92.66
85343;BME280;75760;31.390;34.904;2024-01-27T00:06:05;94971.63;;;9.95;93.18
85343;BME280;75760;31.390;34.904;2024-01-27T00:08:30;94975.47;;;9.94;92.93
85343;BME280;75760;31.390;34.904;2024-01-27T00:10:56;94981.25;;;9.93;93.30
85343;BME280;75760;31.390;34.904;2024-01-27T00:13:22;94973.81;;;9.88;93.79
85343;BME280;75760;31.390;34.904;2024-01-27T00:15:47;94971.00;;;9.91;94.45
85343;BME280;75760;31.390;34.904;2024-01-27T00:18:15;94970.72;;;9.89;94.56
85343;BME280;75760;31.390;34.904;2024-01-27T00:20:41;94974.56;;;9.88;94.90
85343;BME280;75760;31.390;34.904;2024-01-27T00:23:07;94978.50;;;9.84;94.98
85343;BME280;75760;31.390;34.904;2024-01-27T00:25:33;94983.28;;;9.89;94.99
85343;BME280;75760;31.390;34.904;2024-01-27T00:27:59;94974.72;;;9.72;95.03
85343;BME280;75760;31.390;34.904;2024-01-27T00:30:24;94969.84;;;9.71;95.36
85343;BME280;75760;31.390;34.904;2024-01-27T00:32:51;94965.13;;;9.75;95.18
85343;BME280;75760;31.390;34.904;2024-01-27T00:35:17;94957.69;;;9.70;94.78
85343;BME280;75760;31.390;34.904;2024-01-27T00:37:42;94964.19;;;9.68;94.42
85343;BME280;75760;31.390;34.904;2024-01-27T00:40:09;94957.81;;;9.66;94.32
85343;BME280;75760;31.390;34.904;2024-01-27T00:42:35;94961.84;;;9.71;93.74
85343;BME280;75760;31.390;34.904;2024-01-27T00:45:04;94984.00;;;9.67;91.99
85343;BME280;75760;31.390;34.904;2024-01-27T00:47:30;94982.56;;;9.54;89.65
85343;BME280;75760;31.390;34.904;2024-01-27T00:49:56;94981.38;;;9.55;89.64
85343;BME280;75760;31.390;34.904;2024-01-27T00:52:22;94989.19;;;9.49;90.75
85343;BME280;75760;31.390;34.904;2024-01-27T00:54:47;94979.56;;;9.52;91.46
85343;BME280;75760;31.390;34.904;2024-01-27T00:57:13;94977.31;;;9.63;91.77
85343;BME280;75760;31.390;34.904;2024-01-27T00:59:39;94972.28;;;9.65;92.24
85343;BME280;75760;31.390;34.904;2024-01-27T01:02:06;94971.88;;;9.66;92.73
85343;BME280;75760;31.390;34.904;2024-01-27T01:04:32;94962.56;;;9.71;92.52
85343;BME280;75760;31.390;34.904;2024-01-27T01:06:57;94958.53;;;9.66;92.81
85343;BME280;75760;31.390;34.904;2024-01-27T01:09:23;94968.03;;;9.67;92.88
85343;BME280;75760;31.390;34.904;2024-01-27T01:11:49;94968.38;;;9.57;93.20
85343;BME280;75760;31.390;34.904;2024-01-27T01:14:14;94971.97;;;9.63;93.42
85343;BME280;75760;31.390;34.904;2024-01-27T01:16:40;94972.22;;;9.56;93.59
85343;BME280;75760;31.390;34.904;2024-01-27T01:19:06;94969.91;;;9.45;93.97
85343;BME280;75760;31.390;34.904;2024-01-27T01:21:32;94966.56;;;9.54;93.76
85343;BME280;75760;31.390;34.904;2024-01-27T01:23:57;94970.97;;;9.48;93.47
85343;BME280;75760;31.390;34.904;2024-01-27T01:26:24;94964.59;;;9.45;93.67
85343;BME280;75760;31.390;34.904;2024-01-27T01:28:50;94969.97;;;9.54;93.59
85343;BME280;75760;31.390;34.904;2024-01-27T01:31:16;94971.88;;;9.32;93.85
85343;BME280;75760;31.390;34.904;2024-01-27T01:33:42;94970.53;;;9.49;94.06
85343;BME280;75760;31.390;34.904;2024-01-27T01:36:09;94964.81;;;9.38;93.69
85343;BME280;75760;31.390;34.904;2024-01-27T01:38:35;94970.81;;;9.29;93.40
85343;BME280;75760;31.390;34.904;2024-01-27T01:41:00;94968.72;;;9.46;93.07
85343;BME280;75760;31.390;34.904;2024-01-27T01:43:26;94969.81;;;9.36;93.51
85343;BME280;75760;31.390;34.904;2024-01-27T01:45:52;94954.91;;;9.39;93.55
85343;BME280;75760;31.390;34.904;2024-01-27T01:48:20;94965.44;;;9.42;93.58
85343;BME280;75760;31.390;34.904;2024-01-27T01:50:45;94954.50;;;9.40;93.46
85343;BME280;75760;31.390;34.904;2024-01-27T01:53:12;94960.91;;;9.30;93.49
85343;BME280;75760;31.390;34.904;2024-01-27T01:55:38;94956.44;;;9.27;94.15
85343;BME280;75760;31.390;34.904;2024-01-27T01:58:04;94958.66;;;9.28;93.67
85343;BME280;75760;31.390;34.904;2024-01-27T02:00:30;94947.28;;;9.28;93.97
85343;BME280;75760;31.390;34.904;2024-01-27T02:02:56;94946.44;;;9.18;93.45
85343;BME280;75760;31.390;34.904;2024-01-27T02:05:21;94944.84;;;9.21;94.17
85343;BME280;75760;31.390;34.904;2024-01-27T02:07:47;94951.78;;;9.18;94.01
85343;BME280;75760;31.390;34.904;2024-01-27T02:10:14;94956.13;;;9.25;94.48
85343;BME280;75760;31.390;34.904;2024-01-27T02:12:44;94946.59;;;9.37;94.30
85343;BME280;75760;31.390;34.904;2024-01-27T02:15:10;94954.16;;;9.38;93.98
85343;BME280;75760;31.390;34.904;2024-01-27T02:17:40;94946.63;;;9.24;93.70
85343;BME280;75760;31.390;34.904;2024-01-27T02:20:06;94945.13;;;9.23;93.16
85343;BME280;75760;31.390;34.904;2024-01-27T02:22:36;94954.19;;;9.25;92.94
85343;BME280;75760;31.390;34.904;2024-01-27T02:25:02;94952.69;;;9.24;92.57
85343;BME280;75760;31.390;34.904;2024-01-27T02:27:28;94946.03;;;9.20;92.86
85343;BME280;75760;31.390;34.904;2024-01-27T02:29:53;94944.28;;;9.26;92.77
85343;BME280;75760;31.390;34.904;2024-01-27T02:32:19;94943.44;;;9.29;92.52
85343;BME280;75760;31.390;34.904;2024-01-27T02:34:45;94951.97;;;9.24;92.43
85343;BME280;75760;31.390;34.904;2024-01-27T02:37:10;94947.63;;;9.17;92.92
85343;BME280;75760;31.390;34.904;2024-01-27T02:39:36;94949.63;;;9.13;93.27
85343;BME280;75760;31.390;34.904;2024-01-27T02:42:02;94944.97;;;9.05;93.46
85343;BME280;75760;31.390;34.904;2024-01-27T02:44:27;94937.53;;;9.00;92.97
85343;BME280;75760;31.390;34.904;2024-01-27T02:46:53;94930.91;;;9.04;93.17
85343;BME280;75760;31.390;34.904;2024-01-27T02:49:19;94931.28;;;8.93;93.23
85343;BME280;75760;31.390;34.904;2024-01-27T02:51:44;94927.31;;;8.98;93.17
85343;BME280;75760;31.390;34.904;2024-01-27T02:54:16;94932.97;;;8.87;92.84
85343;BME280;75760;31.390;34.904;2024-01-27T02:56:41;94935.53;;;8.91;92.94
85343;BME280;75760;31.390;34.904;2024-01-27T02:59:07;94937.22;;;8.98;92.38
85343;BME280;75760;31.390;34.904;2024-01-27T03:01:32;94944.59;;;8.93;92.46
85343;BME280;75760;31.390;34.904;2024-01-27T03:03:58;94952.66;;;8.90;93.09
85343;BME280;75760;31.390;34.904;2024-01-27T03:06:24;94974.03;;;8.99;92.61
85343;BME280;75760;31.390;34.904;2024-01-27T03:08:49;94985.44;;;8.87;93.08
85343;BME280;75760;31.390;34.904;2024-01-27T03:11:15;94983.53;;;9.00;92.51
85343;BME280;75760;31.390;34.904;2024-01-27T03:13:40;94999.06;;;9.02;92.52
85343;BME280;75760;31.390;34.904;2024-01-27T03:16:10;94991.41;;;8.91;91.98
85343;BME280;75760;31.390;34.904;2024-01-27T03:18:36;95002.78;;;8.91;92.68
85343;BME280;75760;31.390;34.904;2024-01-27T03:21:03;95005.56;;;8.88;93.01
85343;BME280;75760;31.390;34.904;2024-01-27T03:23:28;95006.41;;;8.85;92.49
85343;BME280;75760;31.390;34.904;2024-01-27T03:25:54;95002.56;;;8.86;92.60
85343;BME280;75760;31.390;34.904;2024-01-27T03:28:20;95000.97;;;8.88;91.66
85343;BME280;75760;31.390;34.904;2024-01-27T03:30:46;95002.66;;;8.95;91.15
85343;BME280;75760;31.390;34.904;2024-01-27T03:33:11;94996.94;;;8.97;91.18
85343;BME280;75760;31.390;34.904;2024-01-27T03:35:39;94986.94;;;8.88;91.60
85343;BME280;75760;31.390;34.904;2024-01-27T03:38:07;94991.94;;;8.86;92.12
85343;BME280;75760;31.390;34.904;2024-01-27T03:40:33;95002.16;;;8.87;92.29
85343;BME280;75760;31.390;34.904;2024-01-27T03:42:59;95002.13;;;8.75;92.29
85343;BME280;75760;31.390;34.904;2024-01-27T03:45:24;95006.63;;;8.78;92.32
85343;BME280;75760;31.390;34.904;2024-01-27T03:47:50;95011.19;;;8.65;92.63
85343;BME280;75760;31.390;34.904;2024-01-27T03:50:15;95004.47;;;8.60;92.49
85343;BME280;75760;31.390;34.904;2024-01-27T03:52:41;94999.16;;;8.60;92.89
85343;BME280;75760;31.390;34.904;2024-01-27T03:55:07;95004.78;;;8.49;93.57
85343;BME280;75760;31.390;34.904;2024-01-27T03:57:32;94998.41;;;8.34;93.35
85343;BME280;75760;31.390;34.904;2024-01-27T03:59:58;95006.81;;;8.45;93.66
85343;BME280;75760;31.390;34.904;2024-01-27T04:02:23;95010.19;;;8.46;93.53
85343;BME280;75760;31.390;34.904;2024-01-27T04:04:49;95009.88;;;8.56;92.89
85343;BME280;75760;31.390;34.904;2024-01-27T04:07:15;95011.91;;;8.65;92.40
85343;BME280;75760;31.390;34.904;2024-01-27T04:09:40;95007.78;;;8.64;92.42
85343;BME280;75760;31.390;34.904;2024-01-27T04:12:06;95021.28;;;8.57;92.05
85343;BME280;75760;31.390;34.904;2024-01-27T04:14:32;95011.06;;;8.55;91.72
85343;BME280;75760;31.390;34.904;2024-01-27T04:16:57;95006.72;;;8.62;91.89
85343;BME280;75760;31.390;34.904;2024-01-27T04:19:23;95006.81;;;8.58;91.27
85343;BME280;75760;31.390;34.904;2024-01-27T04:21:48;95005.22;;;8.61;91.52
85343;BME280;75760;31.390;34.904;2024-01-27T04:24:14;95010.88;;;8.63;91.56
85343;BME280;75760;31.390;34.904;2024-01-27T04:26:40;95012.13;;;8.58;91.68
85343;BME280;75760;31.390;34.904;2024-01-27T04:29:05;95011.91;;;8.65;91.17
85343;BME280;75760;31.390;34.904;2024-01-27T04:31:31;95020.09;;;8.58;91.05
85343;BME280;75760;31.390;34.904;2024-01-27T04:33:57;95019.47;;;8.54;91.34
85343;BME280;75760;31.390;34.904;2024-01-27T04:36:30;95017.78;;;8.60;90.99
85343;BME280;75760;31.390;34.904;2024-01-27T04:38:56;95011.91;;;8.65;90.95
85343;BME280;75760;31.390;34.904;2024-01-27T04:41:21;95016.28;;;8.59;90.73
85343;BME280;75760;31.390;34.904;2024-01-27T04:43:47;95025.75;;;8.60;90.49
85343;BME280;75760;31.390;34.904;2024-01-27T04:46:13;95037.97;;;8.57;91.18
85343;BME280;75760;31.390;34.904;2024-01-27T04:48:38;95046.25;;;8.47;91.06
85343;BME280;75760;31.390;34.904;2024-01-27T04:51:04;95038.47;;;8.40;91.98
85343;BME280;75760;31.390;34.904;2024-01-27T04:53:29;95039.75;;;8.35;92.63
85343;BME280;75760;31.390;34.904;2024-01-27T04:55:55;95042.97;;;8.43;92.88
85343;BME280;75760;31.390;34.904;2024-01-27T04:58:21;95040.22;;;8.59;92.66
85343;BME280;75760;31.390;34.904;2024-01-27T05:00:46;95054.91;;;8.64;92.39
85343;BME280;75760;31.390;34.904;2024-01-27T05:03:12;95054.13;;;8.50;92.56
85343;BME280;75760;31.390;34.904;2024-01-27T05:05:41;95067.00;;;8.52;92.75
85343;BME280;75760;31.390;34.904;2024-01-27T05:08:06;95091.03;;;8.48;93.07
85343;BME280;75760;31.390;34.904;2024-01-27T05:10:32;95084.94;;;8.35;92.55
85343;BME280;75760;31.390;34.904;2024-01-27T05:12:57;95093.56;;;8.39;92.43
85343;BME280;75760;31.390;34.904;2024-01-27T05:15:25;95083.88;;;8.33;91.95
85343;BME280;75760;31.390;34.904;2024-01-27T05:17:50;95079.41;;;8.13;91.54
85343;BME280;75760;31.390;34.904;2024-01-27T05:20:17;95077.41;;;8.17;92.92
85343;BME280;75760;31.390;34.904;2024-01-27T05:22:43;95076.91;;;8.23;93.01
85343;BME280;75760;31.390;34.904;2024-01-27T05:25:09;95087.44;;;8.26;93.08
85343;BME280;75760;31.390;34.904;2024-01-27T05:27:39;95090.72;;;8.30;92.56
85343;BME280;75760;31.390;34.904;2024-01-27T05:30:08;95100.63;;;8.30;92.20
85343;BME280;75760;31.390;34.904;2024-01-27T05:32:34;95096.88;;;8.27;93.38
85343;BME280;75760;31.390;34.904;2024-01-27T05:34:59;95082.38;;;8.32;92.83
85343;BME280;75760;31.390;34.904;2024-01-27T05:37:25;95078.28;;;8.43;92.39
85343;BME280;75760;31.390;34.904;2024-01-27T05:39:51;95075.13;;;8.61;91.81
85343;BME280;75760;31.390;34.904;2024-01-27T05:42:16;95071.38;;;8.59;91.18
85343;BME280;75760;31.390;34.904;2024-01-27T05:44:42;95070.13;;;8.63;90.88
85343;BME280;75760;31.390;34.904;2024-01-27T05:47:08;95071.28;;;8.62;90.32
85343;BME280;75760;31.390;34.904;2024-01-27T05:49:36;95070.00;;;8.54;90.55
85343;BME280;75760;31.390;34.904;2024-01-27T05:52:02;95063.81;;;8.57;90.34
85343;BME280;75760;31.390;34.904;2024-01-27T05:54:28;95066.31;;;8.64;90.17
85343;BME280;75760;31.390;34.904;2024-01-27T05:56:53;95057.91;;;9.89;86.73
85343;BME280;75760;31.390;34.904;2024-01-27T05:59:19;95063.16;;;10.58;83.25
85343;BME280;75760;31.390;34.904;2024-01-27T06:01:44;95064.31;;;10.78;81.12
85343;BME280;75760;31.390;34.904;2024-01-27T06:04:14;95071.84;;;11.42;79.44
85343;BME280;75760;31.390;34.904;2024-01-27T06:06:40;95077.59;;;10.91;79.83
85343;BME280;75760;31.390;34.904;2024-01-27T06:09:06;95086.78;;;11.70;78.62
85343;BME280;75760;31.390;34.904;2024-01-27T06:11:36;95091.25;;;10.93;80.12
85343;BME280;75760;31.390;34.904;2024-01-27T06:14:02;95089.09;;;10.35;82.29
85343;BME280;75760;31.390;34.904;2024-01-27T06:16:28;95099.94;;;10.19;82.54
85343;BME280;75760;31.390;34.904;2024-01-27T06:18:54;95102.19;;;10.08;84.35
85343;BME280;75760;31.390;34.904;2024-01-27T06:21:20;95101.88;;;9.59;85.31
85343;BME280;75760;31.390;34.904;2024-01-27T06:23:46;95111.78;;;9.08;86.64
85343;BME280;75760;31.390;34.904;2024-01-27T06:26:13;95112.31;;;9.03;88.15
85343;BME280;75760;31.390;34.904;2024-01-27T06:28:38;95122.63;;;9.01;88.17
85343;BME280;75760;31.390;34.904;2024-01-27T06:31:04;95133.63;;;9.03;87.82
85343;BME280;75760;31.390;34.904;2024-01-27T06:33:30;95130.38;;;8.82;88.40
85343;BME280;75760;31.390;34.904;2024-01-27T06:35:56;95147.84;;;8.96;88.84
85343;BME280;75760;31.390;34.904;2024-01-27T06:38:21;95163.34;;;8.85;88.91
85343;BME280;75760;31.390;34.904;2024-01-27T06:40:47;95202.38;;;8.75;89.17
85343;BME280;75760;31.390;34.904;2024-01-27T06:43:13;95213.50;;;8.86;89.28
85343;BME280;75760;31.390;34.904;2024-01-27T06:45:39;95211.06;;;8.63;90.09
85343;BME280;75760;31.390;34.904;2024-01-27T06:48:05;95196.56;;;8.51;89.33
85343;BME280;75760;31.390;34.904;2024-01-27T06:50:32;95197.44;;;8.61;89.75
85343;BME280;75760;31.390;34.904;2024-01-27T06:52:58;95197.44;;;8.61;90.48
85343;BME280;75760;31.390;34.904;2024-01-27T06:55:24;95198.94;;;8.62;89.56
85343;BME280;75760;31.390;34.904;2024-01-27T06:57:50;95200.44;;;8.63;89.09
85343;BME280;75760;31.390;34.904;2024-01-27T07:00:16;95198.41;;;8.67;89.30
85343;BME280;75760;31.390;34.904;2024-01-27T07:02:42;95198.28;;;8.58;90.05
85343;BME280;75760;31.390;34.904;2024-01-27T07:05:08;95202.22;;;8.53;90.82
85343;BME280;75760;31.390;34.904;2024-01-27T07:07:35;95200.47;;;8.47;91.88
85343;BME280;75760;31.390;34.904;2024-01-27T07:10:01;95202.44;;;8.59;91.56
85343;BME280;75760;31.390;34.904;2024-01-27T07:12:27;95204.44;;;8.55;92.24
85343;BME280;75760;31.390;34.904;2024-01-27T07:14:53;95208.91;;;8.58;92.34
85343;BME280;75760;31.390;34.904;2024-01-27T07:17:20;95193.50;;;8.66;92.29
85343;BME280;75760;31.390;34.904;2024-01-27T07:19:45;95180.53;;;8.55;93.03
85343;BME280;75760;31.390;34.904;2024-01-27T07:22:11;95182.03;;;8.69;92.40
85343;BME280;75760;31.390;34.904;2024-01-27T07:24:37;95177.84;;;8.84;92.51
85343;BME280;75760;31.390;34.904;2024-01-27T07:27:03;95179.44;;;8.94;91.74
85343;BME280;75760;31.390;34.904;2024-01-27T07:29:29;95170.59;;;8.84;92.67
85343;BME280;75760;31.390;34.904;2024-01-27T07:31:55;95169.63;;;9.71;90.96
85343;BME280;75760;31.390;34.904;2024-01-27T07:34:24;95160.41;;;10.22;89.61
85343;BME280;75760;31.390;34.904;2024-01-27T07:36:50;95179.88;;;10.66;86.88
85343;BME280;75760;31.390;34.904;2024-01-27T07:39:15;95176.59;;;10.15;88.19
85343;BME280;75760;31.390;34.904;2024-01-27T07:41:41;95182.41;;;9.63;89.84
85343;BME280;75760;31.390;34.904;2024-01-27T07:54:57;95211.28;;;9.39;91.10
85343;BME280;75760;31.390;34.904;2024-01-27T07:57:22;95217.78;;;9.38;90.69
85343;BME280;75760;31.390;34.904;2024-01-27T07:59:48;95229.13;;;9.26;91.25
85343;BME280;75760;31.390;34.904;2024-01-27T08:02:13;95230.50;;;9.18;90.42
85343;BME280;75760;31.390;34.904;2024-01-27T08:04:39;95247.22;;;9.18;90.05
85343;BME280;75760;31.390;34.904;2024-01-27T08:07:05;95237.19;;;9.10;91.24
85343;BME280;75760;31.390;34.904;2024-01-27T08:09:35;95237.81;;;9.01;91.72
85343;BME280;75760;31.390;34.904;2024-01-27T08:12:01;95237.25;;;8.93;90.92
85343;BME280;75760;31.390;34.904;2024-01-27T08:14:30;95235.84;;;8.89;92.10
85343;BME280;75760;31.390;34.904;2024-01-27T08:16:56;95216.88;;;9.16;91.02
85343;BME280;75760;31.390;34.904;2024-01-27T08:19:23;95214.25;;;8.87;90.05
85343;BME280;75760;31.390;34.904;2024-01-27T08:21:49;95217.22;;;8.89;91.06
85343;BME280;75760;31.390;34.904;2024-01-27T08:24:15;95210.41;;;8.88;91.38
85343;BME280;75760;31.390;34.904;2024-01-27T08:26:41;95213.91;;;8.85;92.11
85343;BME280;75760;31.390;34.904;2024-01-27T08:29:08;95207.47;;;8.70;93.34
85343;BME280;75760;31.390;34.904;2024-01-27T08:31:34;95214.63;;;8.73;93.49
85343;BME280;75760;31.390;34.904;2024-01-27T08:34:00;95210.50;;;8.55;94.16
85343;BME280;75760;31.390;34.904;2024-01-27T08:36:26;95217.63;;;8.59;94.37
85343;BME280;75760;31.390;34.904;2024-01-27T08:38:51;95224.41;;;8.76;93.77
85343;BME280;75760;31.390;34.904;2024-01-27T08:41:17;95209.66;;;8.87;93.21
85343;BME280;75760;31.390;34.904;2024-01-27T08:43:42;95209.16;;;8.92;93.68
85343;BME280;75760;31.390;34.904;2024-01-27T08:46:08;95214.38;;;8.96;93.43
85343;BME280;75760;31.390;34.904;2024-01-27T08:48:36;95212.19;;;8.78;93.87
85343;BME280;75760;31.390;34.904;2024-01-27T08:51:02;95209.34;;;8.85;93.56
85343;BME280;75760;31.390;34.904;2024-01-27T08:53:28;95214.09;;;8.78;94.67
85343;BME280;75760;31.390;34.904;2024-01-27T08:55:53;95220.38;;;8.71;95.03
85343;BME280;75760;31.390;34.904;2024-01-27T08:58:19;95216.41;;;8.92;94.54
85343;BME280;75760;31.390;34.904;2024-01-27T09:00:45;95210.50;;;8.84;94.83
85343;BME280;75760;31.390;34.904;2024-01-27T09:03:10;95204.88;;;8.82;94.51
85343;BME280;75760;31.390;34.904;2024-01-27T09:05:37;95194.78;;;8.90;94.52
85343;BME280;75760;31.390;34.904;2024-01-27T09:08:04;95184.78;;;8.94;94.83
85343;BME280;75760;31.390;34.904;2024-01-27T09:10:29;95186.38;;;8.91;94.66
85343;BME280;75760;31.390;34.904;2024-01-27T09:12:55;95189.22;;;8.84;95.16
85343;BME280;75760;31.390;34.904;2024-01-27T09:15:21;95178.47;;;8.88;95.44
85343;BME280;75760;31.390;34.904;2024-01-27T09:17:46;95185.00;;;9.00;95.61
85343;BME280;75760;31.390;34.904;2024-01-27T09:20:13;95183.78;;;9.29;95.74
85343;BME280;75760;31.390;34.904;2024-01-27T09:22:40;95185.28;;;9.43;94.98
85343;BME280;75760;31.390;34.904;2024-01-27T09:25:07;95178.38;;;9.46;94.53
85343;BME280;75760;31.390;34.904;2024-01-27T09:27:33;95183.38;;;9.31;94.94
85343;BME280;75760;31.390;34.904;2024-01-27T09:29:59;95176.88;;;9.32;94.88
85343;BME280;75760;31.390;34.904;2024-01-27T09:32:25;95176.44;;;9.21;95.24
85343;BME280;75760;31.390;34.904;2024-01-27T09:34:50;95174.72;;;9.27;95.70
85343;BME280;75760;31.390;34.904;2024-01-27T09:37:19;95175.91;;;9.26;95.24
85343;BME280;75760;31.390;34.904;2024-01-27T09:39:44;95170.69;;;9.48;94.96
85343;BME280;75760;31.390;34.904;2024-01-27T09:42:12;95169.00;;;9.41;95.62
85343;BME280;75760;31.390;34.904;2024-01-27T09:44:39;95169.81;;;9.25;94.93
85343;BME280;75760;31.390;34.904;2024-01-27T09:47:05;95158.84;;;9.23;95.30
85343;BME280;75760;31.390;34.904;2024-01-27T09:49:31;95154.50;;;9.29;95.87
85343;BME280;75760;31.390;34.904;2024-01-27T09:51:57;95160.34;;;9.24;95.76
85343;BME280;75760;31.390;34.904;2024-01-27T09:54:23;95153.09;;;9.25;96.01
85343;BME280;75760;31.390;34.904;2024-01-27T09:56:49;95160.34;;;9.24;96.56
85343;BME280;75760;31.390;34.904;2024-01-27T09:59:16;95152.25;;;9.28;96.12
85343;BME280;75760;31.390;34.904;2024-01-27T10:01:44;95152.66;;;9.14;96.82
85343;BME280;75760;31.390;34.904;2024-01-27T10:04:09;95152.56;;;9.43;96.74
85343;BME280;75760;31.390;34.904;2024-01-27T10:06:35;95143.31;;;9.47;95.93
85343;BME280;75760;31.390;34.904;2024-01-27T10:09:01;95140.66;;;9.60;96.08
85343;BME280;75760;31.390;34.904;2024-01-27T10:11:28;95148.75;;;9.69;95.17
85343;BME280;75760;31.390;34.904;2024-01-27T10:13:55;95148.06;;;9.90;94.62
85343;BME280;75760;31.390;34.904;2024-01-27T10:16:21;95141.97;;;10.02;94.67
85343;BME280;75760;31.390;34.904;2024-01-27T10:18:47;95146.09;;;10.16;94.15
85343;BME280;75760;31.390;34.904;2024-01-27T10:21:17;95146.00;;;10.20;93.94
85343;BME280;75760;31.390;34.904;2024-01-27T10:23:45;95147.41;;;10.46;93.24
85343;BME280;75760;31.390;34.904;2024-01-27T10:26:12;95149.84;;;10.53;92.50
85343;BME280;75760;31.390;34.904;2024-01-27T10:28:37;95150.97;;;10.30;92.46
85343;BME280;75760;31.390;34.904;2024-01-27T10:31:12;95153.84;;;10.36;92.55
85343;BME280;75760;31.390;34.904;2024-01-27T10:33:39;95147.84;;;10.45;93.25
85343;BME280;75760;31.390;34.904;2024-01-27T10:36:06;95136.69;;;10.59;92.83
85343;BME280;75760;31.390;34.904;2024-01-27T10:38:35;95135.06;;;10.39;93.06
85343;BME280;75760;31.390;34.904;2024-01-27T10:41:07;95124.44;;;10.49;93.36
85343;BME280;75760;31.390;34.904;2024-01-27T10:43:35;95132.03;;;10.50;93.50
85343;BME280;75760;31.390;34.904;2024-01-27T10:46:05;95121.59;;;10.43;93.92
85343;BME280;75760;31.390;34.904;2024-01-27T10:48:31;95126.16;;;10.21;94.53
85343;BME280;75760;31.390;34.904;2024-01-27T10:50:58;95116.03;;;10.16;94.39
85343;BME280;75760;31.390;34.904;2024-01-27T10:53:26;95128.22;;;10.04;94.58
85343;BME280;75760;31.390;34.904;2024-01-27T10:55:58;95125.38;;;9.98;94.34
85343;BME280;75760;31.390;34.904;2024-01-27T10:58:24;95121.97;;;9.85;94.58
85343;BME280;75760;31.390;34.904;2024-01-27T11:00:53;95136.34;;;9.88;95.41
85343;BME280;75760;31.390;34.904;2024-01-27T11:03:19;95132.47;;;10.01;96.00
85343;BME280;75760;31.390;34.904;2024-01-27T11:05:46;95146.34;;;10.09;96.39
85343;BME280;75760;31.390;34.904;2024-01-27T11:08:12;95129.72;;;9.92;95.87
85343;BME280;75760;31.390;34.904;2024-01-27T11:10:39;95130.78;;;9.95;96.27
85343;BME280;75760;31.390;34.904;2024-01-27T11:13:07;95125.28;;;9.89;96.85
85343;BME280;75760;31.390;34.904;2024-01-27T11:15:33;95129.53;;;9.99;97.06
85343;BME280;75760;31.390;34.904;2024-01-27T11:17:59;95136.13;;;9.95;96.59
85343;BME280;75760;31.390;34.904;2024-01-27T11:20:25;95125.00;;;10.09;95.41
85343;BME280;75760;31.390;34.904;2024-01-27T11:22:51;95124.03;;;10.28;94.92
85343;BME280;75760;31.390;34.904;2024-01-27T11:25:18;95132.94;;;10.34;94.82
85343;BME280;75760;31.390;34.904;2024-01-27T11:27:45;95133.81;;;10.31;95.47
85343;BME280;75760;31.390;34.904;2024-01-27T11:30:28;95131.59;;;10.52;94.82
85343;BME280;75760;31.390;34.904;2024-01-27T11:32:55;95138.09;;;10.51;93.79
85343;BME280;75760;31.390;34.904;2024-01-27T11:35:22;95136.44;;;10.44;94.45
85343;BME280;75760;31.390;34.904;2024-01-27T11:37:48;95138.75;;;10.55;93.88
85343;BME280;75760;31.390;34.904;2024-01-27T11:40:13;95136.44;;;10.44;94.75
85343;BME280;75760;31.390;34.904;2024-01-27T11:42:41;95139.53;;;10.43;94.04
85343;BME280;75760;31.390;34.904;2024-01-27T11:45:08;95129.22;;;10.32;95.09
85343;BME280;75760;31.390;34.904;2024-01-27T11:47:34;95127.22;;;10.23;95.51
85343;BME280;75760;31.390;34.904;2024-01-27T11:50:00;95142.13;;;10.33;95.11
85343;BME280;75760;31.390;34.904;2024-01-27T11:52:27;95136.72;;;10.24;95.00
85343;BME280;75760;31.390;34.904;2024-01-27T11:54:56;95137.16;;;10.10;95.59
85343;BME280;75760;31.390;34.904;2024-01-27T11:57:22;95127.91;;;10.02;95.55
85343;BME280;75760;31.390;34.904;2024-01-27T11:59:48;95133.13;;;9.93;96.31
85343;BME280;75760;31.390;34.904;2024-01-27T12:02:14;95144.88;;;9.95;96.41
85343;BME280;75760;31.390;34.904;2024-01-27T12:04:40;95155.63;;;9.92;95.96
85343;BME280;75760;31.390;34.904;2024-01-27T12:07:06;95155.97;;;9.81;96.08
85343;BME280;75760;31.390;34.904;2024-01-27T12:09:32;95170.69;;;9.86;95.78
85343;BME280;75760;31.390;34.904;2024-01-27T12:11:57;95162.28;;;9.75;95.33
85343;BME280;75760;31.390;34.904;2024-01-27T12:14:23;95165.47;;;9.70;95.30
85343;BME280;75760;31.390;34.904;2024-01-27T12:16:50;95172.59;;;9.73;95.34
85343;BME280;75760;31.390;34.904;2024-01-27T12:19:15;95171.75;;;9.76;95.66
85343;BME280;75760;31.390;34.904;2024-01-27T12:21:51;95179.84;;;9.72;95.88
85343;BME280;75760;31.390;34.904;2024-01-27T12:24:16;95181.25;;;9.77;95.81
85343;BME280;75760;31.390;34.904;2024-01-27T12:26:44;95175.25;;;9.73;95.93
85343;BME280;75760;31.390;34.904;2024-01-27T12:29:10;95179.09;;;9.72;95.86
85343;BME280;75760;31.390;34.904;2024-01-27T12:31:36;95182.41;;;9.63;95.46
85343;BME280;75760;31.390;34.904;2024-01-27T12:34:02;95190.09;;;9.61;95.37
85343;BME280;75760;31.390;34.904;2024-01-27T12:36:27;95189.66;;;9.50;95.04
85343;BME280;75760;31.390;34.904;2024-01-27T12:38:54;95188.06;;;9.52;94.66
85343;BME280;75760;31.390;34.904;2024-01-27T12:41:21;95196.69;;;9.56;94.24
85343;BME280;75760;31.390;34.904;2024-01-27T12:43:46;95191.38;;;9.69;94.28
85343;BME280;75760;31.390;34.904;2024-01-27T12:46:12;95194.25;;;9.75;94.09
85343;BME280;75760;31.390;34.904;2024-01-27T12:48:40;95198.94;;;9.71;94.13
85343;BME280;75760;31.390;34.904;2024-01-27T12:51:05;95201.72;;;9.80;93.84
85343;BME280;75760;31.390;34.904;2024-01-27T12:53:31;95198.19;;;9.83;93.56
85343;BME280;75760;31.390;34.904;2024-01-27T12:55:57;95202.66;;;9.73;93.83
85343;BME280;75760;31.390;34.904;2024-01-27T12:58:23;95204.69;;;9.69;93.51
85343;BME280;75760;31.390;34.904;2024-01-27T13:00:49;95200.97;;;9.66;93.62
85343;BME280;75760;31.390;34.904;2024-01-27T13:03:14;95210.13;;;9.65;94.17